Time;durP1;ratioP1;P1;durP2;ratioP2;P2;SDS_P1;SDS_P2;PMS_P1;PMS_P2;Temp;Humidity;BMP_temperature;BMP_pressure;BME280_temperature;BME280_humidity;BME280_pressure;Samples;Min_cycle;Max_cycle;Signal;HPM_P1;HPM_P2
2022/09/21 00:01:24;;;;;;;9.55;4.32;;;;;;;10.20;100.00;102545.56;4953351;29;20166;-65
2022/09/21 00:03:55;;;;;;;10.75;4.30;;;;;;;10.16;100.00;102540.69;4953194;29;20027;-65
2022/09/21 00:06:22;;;;;;;8.43;4.68;;;;;;;10.19;100.00;102541.25;4953236;29;20038;-65
2022/09/21 00:08:48;;;;;;;5.40;4.05;;;;;;;10.19;100.00;102540.38;4952940;29;20118;-65
2022/09/21 00:11:17;;;;;;;8.98;4.03;;;;;;;10.20;100.00;102542.91;4953094;28;20479;-65
2022/09/21 00:13:45;;;;;;;7.38;4.75;;;;;;;10.17;100.00;102535.22;4953055;29;20035;-65
2022/09/21 00:16:12;;;;;;;7.93;4.20;;;;;;;10.17;100.00;102548.53;4953090;29;20035;-65
2022/09/21 00:18:37;;;;;;;12.30;4.43;;;;;;;10.14;100.00;102534.66;4952757;29;20062;-66
2022/09/21 00:21:12;;;;;;;7.68;4.45;;;;;;;10.12;100.00;102540.16;4952885;29;20463;-65
2022/09/21 00:23:38;;;;;;;6.68;3.30;;;;;;;10.10;100.00;102537.63;4952746;29;20031;-65
2022/09/21 00:26:05;;;;;;;11.43;4.22;;;;;;;10.10;100.00;102542.97;4935362;29;20038;-65
2022/09/21 00:28:31;;;;;;;8.77;4.85;;;;;;;10.08;100.00;102544.09;4952829;29;20046;-67
2022/09/21 00:31:03;;;;;;;7.88;4.07;;;;;;;10.05;100.00;102537.25;4952755;29;20039;-67
2022/09/21 00:33:29;;;;;;;6.68;4.07;;;;;;;10.01;100.00;102541.22;4952840;29;20034;-67
2022/09/21 00:35:54;;;;;;;9.43;4.70;;;;;;;9.97;100.00;102541.66;4934378;29;20383;-67
2022/09/21 00:38:20;;;;;;;12.82;5.15;;;;;;;9.93;100.00;102540.28;4934319;29;20134;-67
2022/09/21 00:40:45;;;;;;;10.60;4.07;;;;;;;9.91;100.00;102534.28;4934076;29;20035;-67
2022/09/21 00:43:15;;;;;;;11.05;4.20;;;;;;;9.88;100.00;102532.75;4916875;29;20490;-67
2022/09/21 00:45:42;;;;;;;8.45;3.60;;;;;;;9.79;100.00;102523.81;4952417;28;20035;-67
2022/09/21 00:48:08;;;;;;;10.57;3.72;;;;;;;9.78;100.00;102518.66;4952381;29;20391;-68
2022/09/21 00:50:36;;;;;;;12.07;6.43;;;;;;;9.86;100.00;102535.56;4952051;28;20490;-68
2022/09/21 00:53:03;;;;;;;11.82;4.63;;;;;;;9.83;100.00;102530.53;4952382;29;20023;-68
2022/09/21 00:55:38;;;;;;;8.13;4.30;;;;;;;9.83;100.00;102537.69;4933181;29;20035;-68
2022/09/21 00:58:14;;;;;;;8.60;4.20;;;;;;;9.76;100.00;102540.13;4916342;29;20127;-68
2022/09/21 01:00:40;;;;;;;9.23;4.15;;;;;;;9.75;100.00;102542.94;4952205;29;20463;-68
2022/09/21 01:03:08;;;;;;;7.45;3.97;;;;;;;9.69;100.00;102539.03;4951988;29;20046;-66
2022/09/21 01:05:33;;;;;;;10.52;4.43;;;;;;;9.68;100.00;102541.84;4952093;28;20339;-65
2022/09/21 01:08:02;;;;;;;8.27;4.45;;;;;;;9.66;100.00;102539.31;4951782;29;20083;-66
2022/09/21 01:10:38;;;;;;;10.65;4.00;;;;;;;9.56;100.00;102536.75;4951878;29;20053;-65
2022/09/21 01:13:17;;;;;;;6.85;4.10;;;;;;;9.48;100.00;102535.78;4951873;29;20019;-65
2022/09/21 01:16:19;;;;;;;5.97;3.63;;;;;;;9.41;100.00;102543.53;4951985;29;20379;-65
2022/09/21 01:18:47;;;;;;;8.85;4.22;;;;;;;9.37;100.00;102540.31;4933231;29;20062;-65
2022/09/21 01:21:15;;;;;;;13.70;4.63;;;;;;;9.36;100.00;102538.66;4933521;29;20123;-65
2022/09/21 01:24:08;;;;;;;6.93;3.42;;;;;;;9.34;100.00;102550.44;4951362;29;20039;-66
2022/09/21 01:27:11;;;;;;;8.57;4.40;;;;;;;9.28;100.00;102551.03;4951305;29;21048;-65
2022/09/21 01:29:50;;;;;;;6.90;3.85;;;;;;;9.23;100.00;102547.97;4951709;29;20423;-65
2022/09/21 01:32:25;;;;;;;9.73;4.78;;;;;;;9.15;100.00;102546.84;4933336;29;20027;-65
2022/09/21 01:35:03;;;;;;;13.90;4.25;;;;;;;9.13;100.00;102547.97;4933288;29;20037;-65
2022/09/21 01:37:36;;;;;;;7.60;4.10;;;;;;;9.06;100.00;102537.06;4933263;29;20606;-65
2022/09/21 01:40:10;;;;;;;9.13;3.80;;;;;;;9.10;100.00;102541.13;4933219;29;20159;-65
2022/09/21 01:42:39;;;;;;;7.75;3.85;;;;;;;9.13;100.00;102545.31;4951229;29;20031;-65
2022/09/21 01:45:07;;;;;;;9.65;5.28;;;;;;;9.11;100.00;102540.13;4950589;29;20042;-65
2022/09/21 01:47:36;;;;;;;6.95;4.18;;;;;;;9.07;100.00;102541.44;4951416;29;20031;-65
2022/09/21 01:50:07;;;;;;;7.97;4.47;;;;;;;9.05;100.00;102545.22;4944111;28;20028;-65
2022/09/21 01:52:51;;;;;;;7.32;4.00;;;;;;;8.94;100.00;102532.91;4933078;29;20020;-65
2022/09/21 01:55:49;;;;;;;11.40;5.13;;;;;;;8.95;100.00;102534.59;4951182;29;20511;-65
2022/09/21 01:58:17;;;;;;;6.22;3.47;;;;;;;8.96;100.00;102542.44;4932200;29;20039;-65
2022/09/21 02:00:47;;;;;;;7.20;4.38;;;;;;;8.97;100.00;102546.75;4932876;29;20028;-65
2022/09/21 02:03:19;;;;;;;9.02;3.80;;;;;;;8.99;100.00;102547.47;4932130;29;20035;-65
2022/09/21 02:05:44;;;;;;;8.50;4.05;;;;;;;9.00;100.00;102537.66;4932828;29;20031;-65
2022/09/21 02:08:11;;;;;;;10.10;4.32;;;;;;;9.03;100.00;102537.34;4950632;29;20118;-65
2022/09/21 02:10:44;;;;;;;7.35;4.25;;;;;;;9.03;100.00;102548.00;4951101;29;20046;-65
2022/09/21 02:13:13;;;;;;;8.05;4.72;;;;;;;9.03;100.00;102544.50;4950905;29;20106;-65
2022/09/21 02:15:48;;;;;;;7.65;4.30;;;;;;;8.99;100.00;102544.81;4950921;29;20526;-65
2022/09/21 02:18:42;;;;;;;8.05;4.05;;;;;;;9.00;100.00;102540.31;4950782;28;20035;-65
2022/09/21 02:21:24;;;;;;;9.38;4.05;;;;;;;8.99;100.00;102543.97;4950846;28;20045;-65
2022/09/21 02:24:04;;;;;;;8.23;4.03;;;;;;;8.92;100.00;102545.53;4950765;29;20031;-65
2022/09/21 02:26:38;;;;;;;9.00;4.85;;;;;;;8.90;100.00;102544.81;4950738;29;20050;-65
2022/09/21 02:29:19;;;;;;;10.50;5.00;;;;;;;8.91;100.00;102551.84;4950938;28;20024;-65
2022/09/21 02:31:50;;;;;;;12.02;3.90;;;;;;;8.88;100.00;102554.75;4951112;29;20031;-65
2022/09/21 02:34:39;;;;;;;5.82;3.80;;;;;;;8.86;100.00;102551.44;4950938;29;20029;-65
2022/09/21 02:37:18;;;;;;;9.80;4.35;;;;;;;8.80;100.00;102555.47;4950727;29;20058;-65
2022/09/21 02:39:51;;;;;;;8.82;4.68;;;;;;;8.72;100.00;102545.56;4950192;28;20031;-65
2022/09/21 02:42:31;;;;;;;9.45;4.72;;;;;;;8.70;100.00;102544.03;4950545;29;20070;-65
2022/09/21 02:45:07;;;;;;;8.27;4.15;;;;;;;8.71;100.00;102549.19;4950434;29;20042;-65
2022/09/21 02:47:40;;;;;;;7.45;3.88;;;;;;;8.72;100.00;102547.38;4933271;29;20451;-65
2022/09/21 02:50:13;;;;;;;5.15;3.50;;;;;;;8.65;100.00;102543.63;4950759;29;20126;-65
2022/09/21 02:52:41;;;;;;;8.10;4.57;;;;;;;8.62;100.00;102535.91;4950662;29;20030;-65
2022/09/21 02:55:08;;;;;;;7.90;3.67;;;;;;;8.60;100.00;102536.06;4950671;29;20098;-66
2022/09/21 02:57:35;;;;;;;7.05;3.47;;;;;;;8.58;100.00;102545.16;4950462;29;20118;-67
2022/09/21 03:00:00;;;;;;;7.78;4.32;;;;;;;8.56;100.00;102550.63;4950372;29;20086;-67
2022/09/21 03:02:35;;;;;;;12.80;4.07;;;;;;;8.56;100.00;102545.28;4950429;29;20039;-67
2022/09/21 03:05:01;;;;;;;7.95;3.92;;;;;;;8.54;100.00;102541.94;4950522;29;20054;-68
2022/09/21 03:07:26;;;;;;;6.47;4.70;;;;;;;8.54;100.00;102544.59;4950766;29;20058;-68
2022/09/21 03:09:51;;;;;;;8.50;4.32;;;;;;;8.52;100.00;102546.56;4932141;29;20043;-68
2022/09/21 03:12:17;;;;;;;8.77;3.47;;;;;;;8.50;100.00;102541.38;4932179;29;20102;-68
2022/09/21 03:14:42;;;;;;;7.68;4.22;;;;;;;8.43;100.00;102544.75;4934966;29;20043;-68
2022/09/21 03:17:08;;;;;;;9.98;4.28;;;;;;;8.36;100.00;102541.78;4935824;29;20091;-68
2022/09/21 03:19:33;;;;;;;7.80;3.65;;;;;;;8.25;100.00;102537.47;4935569;29;20068;-68
2022/09/21 03:21:59;;;;;;;8.00;4.03;;;;;;;8.28;100.00;102546.97;4918487;29;20042;-68
2022/09/21 03:27:08;;;;;;;10.45;3.90;;;;;;;8.23;100.00;102550.03;4935896;29;20087;-68
2022/09/21 03:29:33;;;;;;;6.28;4.00;;;;;;;8.22;100.00;102555.50;4953741;29;20106;-68
2022/09/21 03:31:59;;;;;;;5.43;3.60;;;;;;;8.18;100.00;102548.78;4953756;29;20038;-68
2022/09/21 03:34:24;;;;;;;7.93;3.97;;;;;;;8.11;100.00;102544.00;4953529;29;20031;-68
2022/09/21 03:36:49;;;;;;;7.13;3.67;;;;;;;8.05;100.00;102546.41;4953548;28;20372;-68
2022/09/21 03:39:15;;;;;;;8.88;4.35;;;;;;;8.04;100.00;102548.22;4953988;29;20042;-68
2022/09/21 03:41:40;;;;;;;9.30;3.80;;;;;;;8.04;100.00;102556.19;4953518;29;20036;-68
2022/09/21 03:44:05;;;;;;;7.85;3.72;;;;;;;8.03;100.00;102551.00;4953610;29;20130;-68
2022/09/21 03:46:34;;;;;;;7.30;4.05;;;;;;;8.00;100.00;102559.25;4953435;28;20066;-68
2022/09/21 03:48:59;;;;;;;8.27;3.38;;;;;;;7.93;100.00;102566.91;4953260;28;20062;-68
2022/09/21 03:51:25;;;;;;;5.60;3.25;;;;;;;7.88;100.00;102563.81;4953573;29;20551;-68
2022/09/21 03:53:50;;;;;;;8.18;4.13;;;;;;;7.85;100.00;102562.28;4936180;29;20035;-67
2022/09/21 03:56:16;;;;;;;6.70;3.38;;;;;;;7.87;100.00;102570.13;4953365;29;20040;-67
2022/09/21 03:58:41;;;;;;;7.65;3.92;;;;;;;7.85;100.00;102567.59;4953299;29;20071;-68
2022/09/21 04:01:06;;;;;;;9.07;3.88;;;;;;;7.81;100.00;102566.22;4952818;29;20031;-68
2022/09/21 04:03:32;;;;;;;6.30;3.75;;;;;;;7.82;100.00;102573.19;4935956;29;20492;-67
2022/09/21 04:05:57;;;;;;;7.05;3.53;;;;;;;7.81;100.00;102563.56;4953320;29;20035;-67
2022/09/21 04:08:23;;;;;;;9.30;4.53;;;;;;;7.78;100.00;102569.13;4953070;28;20039;-67
2022/09/21 04:10:48;;;;;;;6.22;3.55;;;;;;;7.78;100.00;102565.63;4953111;29;20031;-68
2022/09/21 04:13:13;;;;;;;8.48;3.85;;;;;;;7.78;100.00;102565.63;4953052;29;20035;-68
2022/09/21 04:15:39;;;;;;;9.82;4.10;;;;;;;7.76;100.00;102559.63;4935550;29;20027;-67
2022/09/21 04:18:04;;;;;;;8.60;3.85;;;;;;;7.72;100.00;102558.19;4952816;29;20498;-67
2022/09/21 04:20:30;;;;;;;8.52;3.30;;;;;;;7.69;100.00;102554.00;4953075;29;20475;-67
2022/09/21 04:22:55;;;;;;;9.82;4.45;;;;;;;7.63;100.00;102559.88;4952875;29;20035;-68
2022/09/21 04:25:21;;;;;;;6.15;4.10;;;;;;;7.60;100.00;102562.78;4951956;28;20117;-68
2022/09/21 04:27:46;;;;;;;15.18;4.60;;;;;;;7.56;100.00;102564.03;4952844;29;20137;-67
2022/09/21 04:30:13;;;;;;;9.25;4.70;;;;;;;7.56;100.00;102572.00;4952096;29;20075;-67
2022/09/21 04:32:39;;;;;;;8.93;3.78;;;;;;;7.57;100.00;102573.66;4952509;28;20435;-67
2022/09/21 04:35:05;;;;;;;7.82;3.42;;;;;;;7.54;100.00;102565.97;4952620;28;20035;-67
2022/09/21 04:37:30;;;;;;;6.45;3.58;;;;;;;7.50;100.00;102567.22;4952208;28;20399;-67
2022/09/21 04:39:55;;;;;;;8.18;3.95;;;;;;;7.51;100.00;102574.19;4935427;29;20566;-67
2022/09/21 04:42:22;;;;;;;8.75;5.45;;;;;;;7.45;100.00;102571.09;4952349;29;20039;-67
2022/09/21 04:44:47;;;;;;;5.57;3.20;;;;;;;7.46;100.00;102572.78;4952608;29;20031;-67
2022/09/21 04:47:13;;;;;;;5.60;3.90;;;;;;;7.48;100.00;102572.66;4952594;29;20039;-67
2022/09/21 04:49:38;;;;;;;6.40;4.07;;;;;;;7.47;100.00;102579.78;4951940;29;20035;-68
2022/09/21 04:52:04;;;;;;;7.60;4.32;;;;;;;7.46;100.00;102583.41;4952369;29;20118;-67
2022/09/21 04:54:30;;;;;;;8.50;4.10;;;;;;;7.45;100.00;102573.75;4952136;29;20030;-67
2022/09/21 04:56:55;;;;;;;8.05;4.00;;;;;;;7.37;100.00;102562.13;4952151;28;20035;-67
2022/09/21 04:59:21;;;;;;;8.52;4.40;;;;;;;7.45;100.00;102571.09;4952243;29;20039;-67
2022/09/21 05:01:46;;;;;;;9.40;4.50;;;;;;;7.44;100.00;102577.41;4951801;28;20035;-67
2022/09/21 05:04:11;;;;;;;10.40;5.07;;;;;;;7.39;100.00;102578.78;4951739;29;20047;-67
2022/09/21 05:06:37;;;;;;;15.93;4.72;;;;;;;7.36;100.00;102582.53;4952144;29;20042;-67
2022/09/21 05:11:46;;;;;;;12.23;4.88;;;;;;;7.31;100.00;102589.19;4952281;28;20046;-67
2022/09/21 05:14:12;;;;;;;7.13;4.75;;;;;;;7.28;100.00;102581.50;4951854;29;20028;-67
2022/09/21 05:16:37;;;;;;;11.05;5.18;;;;;;;7.15;100.00;102573.75;4951962;29;20086;-67
2022/09/21 05:19:03;;;;;;;11.90;4.70;;;;;;;7.18;100.00;102594.75;4951657;29;20099;-67
2022/09/21 05:21:30;;;;;;;9.27;5.78;;;;;;;7.15;100.00;102594.97;4934563;29;20031;-67
2022/09/21 05:23:56;;;;;;;9.35;4.15;;;;;;;7.14;100.00;102595.97;4951536;29;20463;-67
2022/09/21 05:26:21;;;;;;;10.05;4.75;;;;;;;7.13;100.00;102589.81;4951290;29;20034;-68
2022/09/21 05:28:47;;;;;;;11.63;5.70;;;;;;;7.14;100.00;102586.19;4951626;29;20050;-68
2022/09/21 05:31:44;;;;;;;8.52;4.93;;;;;;;7.14;100.00;102598.63;4951638;29;20062;-68
2022/09/21 05:34:23;;;;;;;8.43;4.38;;;;;;;7.11;100.00;102596.22;4934223;29;20015;-68
2022/09/21 05:37:09;;;;;;;11.93;4.88;;;;;;;7.14;100.00;102610.06;4950677;28;20122;-68
2022/09/21 05:39:34;;;;;;;9.93;4.78;;;;;;;7.13;100.00;102612.88;4951451;29;20049;-68
2022/09/21 05:42:00;;;;;;;5.97;3.53;;;;;;;7.14;100.00;102615.38;4951335;29;20043;-67
2022/09/21 05:44:25;;;;;;;10.00;3.80;;;;;;;7.14;100.00;102615.38;4951441;29;20122;-68
2022/09/21 05:47:27;;;;;;;5.63;3.47;;;;;;;7.18;100.00;102618.63;4951575;29;20070;-68
2022/09/21 05:50:15;;;;;;;7.05;4.00;;;;;;;7.22;100.00;102622.69;4951304;29;20031;-68
2022/09/21 05:53:27;;;;;;;8.02;3.67;;;;;;;7.27;100.00;102619.66;4950908;29;20054;-68
2022/09/21 05:55:57;;;;;;;7.35;4.30;;;;;;;7.31;100.00;102613.06;4888094;29;20110;-67
2022/09/21 05:58:30;;;;;;;8.10;4.28;;;;;;;7.34;100.00;102616.34;4932967;29;20036;-67
2022/09/21 06:01:20;;;;;;;9.38;4.50;;;;;;;7.39;100.00;102623.91;4932843;29;20039;-67
2022/09/21 06:03:48;;;;;;;10.05;4.22;;;;;;;7.42;100.00;102626.28;4932722;29;20127;-67
2022/09/21 06:06:15;;;;;;;7.25;4.47;;;;;;;7.44;100.00;102633.16;4932550;29;20391;-67
2022/09/21 06:08:40;;;;;;;8.15;4.93;;;;;;;7.46;100.00;102631.19;4932618;29;20054;-67
2022/09/21 06:11:05;;;;;;;8.43;4.72;;;;;;;7.51;100.00;102628.13;4932603;29;21040;-67
2022/09/21 06:13:31;;;;;;;11.13;5.85;;;;;;;7.55;100.00;102626.91;4932341;29;20059;-68
2022/09/21 06:15:57;;;;;;;9.50;5.65;;;;;;;7.62;100.00;102629.84;4931690;29;20131;-67
2022/09/21 06:18:22;;;;;;;12.18;6.15;;;;;;;7.70;100.00;102640.66;4932288;29;20039;-68
2022/09/21 06:20:48;;;;;;;12.20;6.72;;;;;;;7.81;100.00;102637.09;4932569;29;20052;-68
2022/09/21 06:23:13;;;;;;;15.40;6.10;;;;;;;7.93;100.00;102640.47;4932521;29;20042;-68
2022/09/21 06:25:39;;;;;;;17.30;7.65;;;;;;;8.02;100.00;102645.00;4932565;29;20050;-68
2022/09/21 06:28:07;;;;;;;14.95;6.97;;;;;;;8.10;100.00;102637.16;4915310;29;20260;-68
2022/09/21 06:30:33;;;;;;;10.40;6.05;;;;;;;8.20;100.00;102639.81;4932010;29;20027;-68
2022/09/21 06:33:03;;;;;;;10.85;6.75;;;;;;;8.26;100.00;102640.13;4932352;29;20035;-67
2022/09/21 06:35:29;;;;;;;12.82;6.53;;;;;;;8.29;100.00;102631.88;4950560;29;20027;-68
2022/09/21 06:38:04;;;;;;;11.48;5.78;;;;;;;8.33;100.00;102629.78;4950555;29;20045;-67
2022/09/21 06:40:31;;;;;;;13.98;7.68;;;;;;;8.40;100.00;102632.78;4950782;29;20039;-67
2022/09/21 06:43:01;;;;;;;14.25;6.95;;;;;;;8.46;100.00;102633.06;4950512;28;20035;-67
2022/09/21 06:45:28;;;;;;;15.65;9.10;;;;;;;8.52;100.00;102626.34;4933389;29;20042;-67
2022/09/21 06:47:53;;;;;;;16.38;7.20;;;;;;;8.60;100.00;102633.63;4950652;28;20515;-65
2022/09/21 06:50:19;;;;;;;11.93;7.25;;;;;;;8.66;100.00;102627.75;4937111;29;20039;-66
2022/09/21 06:52:44;;;;;;;17.20;7.75;;;;;;;8.71;100.00;102623.69;4954017;29;20038;-65
2022/09/21 06:55:10;;;;;;;13.50;8.10;;;;;;;8.80;100.00;102626.47;4953834;29;20513;-65
2022/09/21 06:57:39;;;;;;;16.00;9.80;;;;;;;8.88;100.00;102627.47;4954017;28;20055;-64
2022/09/21 07:00:07;;;;;;;14.52;9.68;;;;;;;8.96;100.00;102635.56;4954320;29;20031;-64
2022/09/21 07:02:32;;;;;;;15.63;9.15;;;;;;;9.06;100.00;102632.03;4954066;29;20044;-64
2022/09/21 07:04:58;;;;;;;15.55;8.85;;;;;;;9.15;100.00;102629.38;4953998;29;20035;-64
2022/09/21 07:07:24;;;;;;;15.38;7.38;;;;;;;9.25;100.00;102632.03;4953700;29;20074;-64
2022/09/21 07:09:50;;;;;;;15.63;8.18;;;;;;;9.34;100.00;102636.47;4953965;29;20038;-69
2022/09/21 07:12:16;;;;;;;16.23;8.20;;;;;;;9.37;100.00;102625.53;4954247;28;20510;-64
2022/09/21 07:14:43;;;;;;;15.27;7.70;;;;;;;9.52;100.00;102639.22;4953985;28;20035;-66
2022/09/21 07:17:09;;;;;;;19.60;7.28;;;;;;;9.62;100.00;102642.69;4954183;29;20031;-64
2022/09/21 07:19:35;;;;;;;16.98;7.15;;;;;;;9.70;100.00;102638.47;4953968;28;20110;-64
2022/09/21 07:22:00;;;;;;;15.80;7.03;;;;;;;9.78;100.00;102636.75;4953967;29;20052;-65
2022/09/21 07:24:25;;;;;;;14.40;7.72;;;;;;;9.86;100.00;102642.16;4953880;29;20980;-64
2022/09/21 07:26:51;;;;;;;15.68;7.57;;;;;;;9.94;100.00;102641.44;4954023;28;20023;-64
2022/09/21 07:29:17;;;;;;;13.52;7.55;;;;;;;9.95;100.00;102627.09;4954079;29;20437;-64
2022/09/21 07:31:47;;;;;;;17.08;7.32;;;;;;;10.07;100.00;102633.91;4936555;29;20034;-65
2022/09/21 07:34:13;;;;;;;19.95;8.75;;;;;;;10.17;100.00;102633.88;4942481;28;20038;-65
2022/09/21 07:36:38;;;;;;;15.65;7.72;;;;;;;10.25;100.00;102633.94;4938228;28;20023;-66
2022/09/21 07:39:04;;;;;;;11.77;6.88;;;;;;;10.30;100.00;102630.88;4939441;28;20050;-66
2022/09/21 07:41:29;;;;;;;13.38;7.90;;;;;;;10.39;100.00;102629.94;4939380;28;20032;-65
2022/09/21 07:43:55;;;;;;;13.10;7.03;;;;;;;10.46;100.00;102628.34;4939038;28;20039;-64
2022/09/21 07:46:20;;;;;;;14.75;8.57;;;;;;;10.56;100.00;102633.63;4939340;28;20451;-66
2022/09/21 07:48:46;;;;;;;14.07;7.30;;;;;;;10.64;100.00;102632.88;4939336;28;20032;-65
2022/09/21 07:51:14;;;;;;;16.67;8.93;;;;;;;10.71;100.00;102632.06;4935948;28;20539;-66
2022/09/21 07:53:43;;;;;;;17.17;7.18;;;;;;;10.78;100.00;102628.81;4935056;29;20027;-66
2022/09/21 07:56:14;;;;;;;14.02;7.70;;;;;;;10.88;100.00;102630.41;4952807;28;20534;-66
2022/09/21 08:01:25;;;;;;;12.40;7.20;;;;;;;11.05;100.00;102617.16;4952524;28;20110;-66
2022/09/21 08:03:52;;;;;;;14.50;7.15;;;;;;;11.19;100.00;102625.44;4953243;29;20062;-66
2022/09/21 08:06:18;;;;;;;15.35;8.90;;;;;;;11.28;100.00;102625.50;4953295;28;20060;-66
2022/09/21 08:08:46;;;;;;;15.18;6.07;;;;;;;11.38;99.24;102624.38;4952850;29;20391;-66
2022/09/21 08:11:17;;;;;;;10.98;6.40;;;;;;;11.47;99.41;102625.25;4953192;29;20121;-66
2022/09/21 08:13:42;;;;;;;15.18;6.40;;;;;;;11.57;98.81;102622.47;4953253;29;20027;-66
2022/09/21 08:16:08;;;;;;;11.13;6.13;;;;;;;11.67;98.36;102623.19;4953044;29;20066;-66
2022/09/21 08:18:38;;;;;;;13.20;6.07;;;;;;;11.76;97.80;102624.94;4952764;29;20079;-66
2022/09/21 08:21:04;;;;;;;12.45;5.80;;;;;;;11.81;96.59;102619.06;4952862;29;20502;-66
2022/09/21 08:23:29;;;;;;;9.30;5.20;;;;;;;11.92;95.42;102623.31;4952803;28;20038;-66
2022/09/21 08:26:00;;;;;;;5.95;3.97;;;;;;;12.03;94.10;102631.06;4952801;29;20031;-66
2022/09/21 08:28:26;;;;;;;7.38;4.60;;;;;;;12.09;93.90;102635.75;4952851;29;20039;-66
2022/09/21 08:30:52;;;;;;;7.65;3.95;;;;;;;12.15;93.84;102635.09;4952727;29;20086;-66
2022/09/21 08:33:17;;;;;;;7.10;4.18;;;;;;;12.24;91.21;102636.81;4952589;28;20419;-66
2022/09/21 08:35:51;;;;;;;7.57;3.28;;;;;;;12.30;90.48;102635.31;4952567;29;20487;-66
2022/09/21 08:38:16;;;;;;;6.88;4.72;;;;;;;12.38;88.24;102635.31;4952610;28;20058;-66
2022/09/21 08:40:41;;;;;;;11.93;3.78;;;;;;;12.45;88.91;102633.66;4952366;29;20077;-66
2022/09/21 08:43:12;;;;;;;5.38;3.60;;;;;;;12.53;86.89;102635.50;4952388;29;20054;-66
2022/09/21 08:45:41;;;;;;;10.00;3.53;;;;;;;12.63;88.10;102638.03;4952531;29;20066;-66
2022/09/21 08:48:14;;;;;;;5.60;3.28;;;;;;;12.72;86.37;102634.34;4952413;29;20030;-66
2022/09/21 08:50:51;;;;;;;6.20;2.97;;;;;;;12.82;85.62;102640.38;4948027;29;20110;-66
2022/09/21 08:53:28;;;;;;;6.22;1.80;;;;;;;12.87;83.03;102640.72;4947899;29;20051;-66
2022/09/21 08:55:58;;;;;;;4.03;2.15;;;;;;;12.97;84.53;102634.34;4952173;29;20031;-66
2022/09/21 08:58:26;;;;;;;5.00;2.33;;;;;;;13.06;83.65;102639.53;4951851;28;20455;-66
2022/09/21 09:01:17;;;;;;;6.15;3.00;;;;;;;13.15;83.35;102643.88;4952254;28;20031;-65
2022/09/21 09:04:14;;;;;;;8.40;2.58;;;;;;;13.21;82.52;102638.84;4951772;29;20031;-66
2022/09/21 09:06:57;;;;;;;5.63;2.85;;;;;;;13.34;82.25;102644.56;4945056;29;20480;-66
2022/09/21 09:09:50;;;;;;;2.65;2.00;;;;;;;13.42;80.14;102644.53;4933419;29;20036;-66
2022/09/21 09:12:24;;;;;;;5.25;2.47;;;;;;;13.48;79.14;102643.84;4933434;29;20036;-69
2022/09/21 09:14:55;;;;;;;5.43;2.08;;;;;;;13.62;77.86;102646.81;4933638;29;20038;-69
2022/09/21 09:17:31;;;;;;;3.57;1.73;;;;;;;13.74;78.06;102640.91;4933669;29;20027;-71
2022/09/21 09:20:19;;;;;;;5.57;2.10;;;;;;;13.89;78.70;102643.69;4933488;29;20056;-70
2022/09/21 09:23:05;;;;;;;7.20;1.50;;;;;;;13.95;75.30;102650.22;4933530;29;20047;-70
2022/09/21 09:25:38;;;;;;;3.53;1.75;;;;;;;14.00;74.07;102650.53;4951783;28;20039;-70
2022/09/21 09:28:26;;;;;;;7.88;2.15;;;;;;;14.06;78.08;102644.44;4951832;29;20110;-70
2022/09/21 09:31:12;;;;;;;6.50;2.03;;;;;;;14.10;77.00;102648.47;4951583;28;20042;-70
2022/09/21 09:33:43;;;;;;;5.75;2.17;;;;;;;14.18;74.79;102643.03;4944939;29;20482;-70
2022/09/21 09:36:11;;;;;;;2.70;1.83;;;;;;;14.24;72.52;102646.88;4933262;29;20499;-70
2022/09/21 09:38:56;;;;;;;4.90;1.30;;;;;;;14.33;73.92;102647.63;4933114;29;20040;-70
2022/09/21 09:41:21;;;;;;;5.03;1.55;;;;;;;14.41;73.57;102647.63;4934382;29;20125;-70
2022/09/21 09:43:59;;;;;;;6.10;1.87;;;;;;;14.43;70.78;102656.31;4951425;29;20117;-70
2022/09/21 09:46:43;;;;;;;4.32;1.55;;;;;;;14.41;69.31;102650.31;4951431;28;20282;-70
2022/09/21 09:49:13;;;;;;;7.05;1.42;;;;;;;14.45;70.26;102647.06;4951301;29;20063;-69
2022/09/21 09:51:39;;;;;;;1.95;0.82;;;;;;;14.51;70.70;102648.19;4950684;29;20058;-70
2022/09/21 09:54:05;;;;;;;4.28;1.20;;;;;;;14.62;71.31;102644.31;4951387;29;20118;-70
2022/09/21 09:56:31;;;;;;;5.25;1.38;;;;;;;14.78;71.35;102656.78;4951234;28;20070;-70
2022/09/21 09:59:05;;;;;;;1.35;1.25;;;;;;;14.85;69.17;102646.97;4950941;28;20047;-70
2022/09/21 10:01:41;;;;;;;8.35;1.80;;;;;;;14.88;69.98;102651.97;4951107;29;20106;-70
2022/09/21 10:04:12;;;;;;;4.00;1.65;;;;;;;14.94;67.78;102645.88;4951084;29;20430;-70
2022/09/21 10:06:38;;;;;;;4.65;1.65;;;;;;;15.11;69.35;102649.25;4932788;29;20483;-68
2022/09/21 10:09:40;;;;;;;5.13;1.65;;;;;;;15.30;70.08;102651.44;4932531;29;20031;-69
2022/09/21 10:12:26;;;;;;;4.88;1.52;;;;;;;15.23;68.63;102641.59;4950481;29;20504;-69
2022/09/21 10:14:55;;;;;;;4.78;1.45;;;;;;;15.11;68.69;102646.56;4951095;28;20035;-69
2022/09/21 10:17:23;;;;;;;5.53;1.63;;;;;;;15.04;67.36;102641.09;4950913;29;20461;-74
2022/09/21 10:19:58;;;;;;;5.20;1.90;;;;;;;15.19;65.09;102648.34;4950761;28;20085;-68
2022/09/21 10:22:24;;;;;;;3.00;1.65;;;;;;;15.33;61.93;102647.53;4950923;28;20390;-68
2022/09/21 10:24:53;;;;;;;3.65;1.00;;;;;;;15.48;61.52;102650.22;4950500;29;20117;-68
2022/09/21 10:27:32;;;;;;;5.72;1.67;;;;;;;15.65;64.61;102645.50;4950879;29;20027;-69
2022/09/21 10:29:57;;;;;;;2.13;1.42;;;;;;;15.77;63.79;102647.56;4950719;29;20039;-68
2022/09/21 10:32:27;;;;;;;3.80;1.67;;;;;;;15.66;61.41;102645.28;4950848;28;20042;-68
2022/09/21 10:34:58;;;;;;;4.75;1.60;;;;;;;15.43;63.38;102641.88;4950693;29;20039;-68
2022/09/21 10:37:29;;;;;;;6.53;1.83;;;;;;;15.27;65.21;102632.13;4950262;28;20054;-68
2022/09/21 10:39:56;;;;;;;3.43;1.67;;;;;;;15.17;64.66;102635.09;4932146;29;20027;-68
2022/09/21 10:42:22;;;;;;;5.93;1.90;;;;;;;15.14;66.35;102630.06;4932249;29;20032;-68
2022/09/21 10:45:02;;;;;;;5.25;2.05;;;;;;;15.09;65.92;102627.09;4950380;28;20073;-69
2022/09/21 10:48:08;;;;;;;5.95;2.00;;;;;;;15.03;65.40;102627.84;4949447;29;20023;-69
2022/09/21 10:50:43;;;;;;;4.70;1.60;;;;;;;14.93;66.50;102627.25;4939927;28;20051;-68
2022/09/21 10:53:08;;;;;;;3.85;1.65;;;;;;;14.90;67.26;102626.59;4950207;29;20122;-68
2022/09/21 10:55:50;;;;;;;2.90;1.50;;;;;;;14.99;65.32;102622.00;4950380;29;20106;-67
2022/09/21 10:58:16;;;;;;;3.33;1.63;;;;;;;15.04;61.18;102621.47;4950628;29;20122;-68
2022/09/21 11:00:50;;;;;;;6.22;1.40;;;;;;;14.98;61.38;102623.00;4950187;29;20102;-68
2022/09/21 11:03:40;;;;;;;3.30;1.40;;;;;;;15.03;64.93;102620.59;4950208;29;20031;-68
2022/09/21 11:06:23;;;;;;;3.40;0.90;;;;;;;15.06;65.38;102614.88;4950509;29;20077;-69
2022/09/21 11:08:51;;;;;;;3.47;1.40;;;;;;;15.19;65.39;102622.28;4950351;29;20165;-68
2022/09/21 11:11:36;;;;;;;2.20;1.38;;;;;;;15.42;61.67;102621.38;4950554;29;20043;-68
2022/09/21 11:14:25;;;;;;;6.03;1.83;;;;;;;15.71;65.11;102620.56;4949849;29;20031;-68
2022/09/21 11:16:59;;;;;;;1.25;1.15;;;;;;;15.86;63.36;102609.78;4949730;29;20035;-69
2022/09/21 11:19:24;;;;;;;3.13;1.10;;;;;;;15.99;60.51;102626.94;4950230;29;20088;-72
2022/09/21 11:22:10;;;;;;;6.30;1.30;;;;;;;16.03;58.87;102619.28;4950373;28;20062;-70
2022/09/21 11:24:42;;;;;;;5.82;1.40;;;;;;;15.98;57.67;102608.25;4950535;28;20412;-70
2022/09/21 11:27:11;;;;;;;;;;;;;;;16.13;63.86;102622.53;4950872;29;20475;-70
2022/09/21 11:29:46;;;;;;;3.50;1.10;;;;;;;16.00;60.80;102625.88;4937720;28;19911;-69
2022/09/21 11:32:44;;;;;;;4.30;1.15;;;;;;;15.88;64.09;102616.66;4936159;28;20039;-70
2022/09/21 11:35:39;;;;;;;2.13;0.80;;;;;;;15.88;62.23;102618.53;4937776;28;20131;-68
2022/09/21 11:38:05;;;;;;;2.10;0.93;;;;;;;15.87;56.79;102619.53;4938555;28;20035;-69
2022/09/21 11:40:30;;;;;;;4.38;1.67;;;;;;;15.86;57.68;102617.88;4937606;28;20114;-69
2022/09/21 11:43:13;;;;;;;4.22;1.35;;;;;;;15.97;60.74;102614.69;4939648;28;20027;-70
2022/09/21 11:45:47;;;;;;;3.28;0.90;;;;;;;16.01;59.69;102615.97;4939430;28;20514;-69
2022/09/21 11:48:24;;;;;;;4.28;1.48;;;;;;;15.98;60.04;102609.13;4938785;28;20036;-69